Time;durP1;ratioP1;P1;durP2;ratioP2;P2;SDS_P1;SDS_P2;PMS_P1;PMS_P2;Temp;Humidity;BMP_temperature;BMP_pressure;BME280_temperature;BME280_humidity;BME280_pressure;Samples;Min_cycle;Max_cycle;Signal;HPM_P1;HPM_P2
2023/05/13 00:02:15;;;;;;;3.33;3.10;;;19.20;65.60;;;;;;5114619;28;20169;-62
2023/05/13 00:04:41;;;;;;;3.40;3.20;;;19.20;65.50;;;;;;5114772;28;20261;-61
2023/05/13 00:07:06;;;;;;;3.58;3.28;;;19.20;65.50;;;;;;5113631;28;20197;-62
2023/05/13 00:09:32;;;;;;;3.42;3.22;;;19.20;65.50;;;;;;5114920;28;20545;-62
2023/05/13 00:11:57;;;;;;;3.13;2.80;;;19.20;65.40;;;;;;5114823;28;20244;-61
2023/05/13 00:14:23;;;;;;;3.97;3.40;;;19.20;65.40;;;;;;5113668;28;20180;-61
2023/05/13 00:16:48;;;;;;;3.05;2.75;;;19.20;65.40;;;;;;5114678;28;20161;-62
2023/05/13 00:19:14;;;;;;;3.58;2.92;;;19.20;65.40;;;;;;5114202;28;20181;-61
2023/05/13 00:21:40;;;;;;;3.50;3.20;;;19.20;65.30;;;;;;5113826;28;20623;-61
2023/05/13 00:24:05;;;;;;;3.95;3.65;;;19.20;65.30;;;;;;5112771;28;20234;-61
2023/05/13 00:26:31;;;;;;;4.45;3.00;;;19.20;65.30;;;;;;5113966;28;20226;-61
2023/05/13 00:28:56;;;;;;;2.90;2.70;;;19.20;65.30;;;;;;5113417;28;20209;-61
2023/05/13 00:31:22;;;;;;;3.00;2.80;;;19.20;65.20;;;;;;5113154;28;20226;-62
2023/05/13 00:33:47;;;;;;;3.58;3.30;;;19.20;65.30;;;;;;5114234;28;20548;-62
2023/05/13 00:36:13;;;;;;;3.75;3.45;;;19.20;65.20;;;;;;5113313;28;20241;-62
2023/05/13 00:38:39;;;;;;;3.38;3.17;;;19.20;65.20;;;;;;5114278;28;20175;-62
2023/05/13 00:41:04;;;;;;;4.32;3.45;;;19.20;65.10;;;;;;5114198;28;20634;-61
2023/05/13 00:43:30;;;;;;;4.13;3.42;;;19.10;65.10;;;;;;5113606;28;20197;-61
2023/05/13 00:45:56;;;;;;;3.40;3.10;;;19.20;65.10;;;;;;5114135;28;20169;-61
2023/05/13 00:48:21;;;;;;;3.38;3.08;;;19.10;65.10;;;;;;5112516;28;20571;-61
2023/05/13 00:50:47;;;;;;;3.25;3.05;;;19.10;65.80;;;;;;5113124;28;20276;-61
2023/05/13 00:53:13;;;;;;;3.75;3.20;;;19.10;65.00;;;;;;5096064;28;20169;-61
2023/05/13 00:55:42;;;;;;;3.40;3.10;;;19.10;64.90;;;;;;5114148;28;20180;-61
2023/05/13 00:58:08;;;;;;;3.70;3.40;;;19.10;64.80;;;;;;5113499;28;20177;-62
2023/05/13 01:00:35;;;;;;;2.95;2.75;;;19.10;64.90;;;;;;5113828;28;20654;-62
2023/05/13 01:03:05;;;;;;;3.42;3.13;;;19.10;64.80;;;;;;5111771;28;20199;-62
2023/05/13 01:05:34;;;;;;;4.80;3.67;;;19.10;64.80;;;;;;5112064;28;20177;-62
2023/05/13 01:08:08;;;;;;;4.82;3.95;;;19.10;64.80;;;;;;5113646;28;20289;-62
2023/05/13 01:10:37;;;;;;;3.70;3.30;;;19.10;64.80;;;;;;5112921;28;20192;-61
2023/05/13 01:13:07;;;;;;;3.90;3.28;;;19.10;64.80;;;;;;5112443;28;20173;-61
2023/05/13 01:15:33;;;;;;;3.53;3.22;;;19.10;64.80;;;;;;5096211;28;20172;-62
2023/05/13 01:18:14;;;;;;;4.03;3.13;;;19.10;64.80;;;;;;5094559;28;20173;-62
2023/05/13 01:20:41;;;;;;;3.47;3.28;;;19.10;64.70;;;;;;5112399;28;20183;-61
2023/05/13 01:23:07;;;;;;;3.67;3.38;;;19.00;64.50;;;;;;5113121;28;20305;-61
2023/05/13 01:25:32;;;;;;;3.38;3.08;;;19.10;65.40;;;;;;5112628;28;20663;-61
2023/05/13 01:27:58;;;;;;;3.70;3.20;;;19.10;64.50;;;;;;5112449;28;20300;-61
2023/05/13 01:30:23;;;;;;;3.70;3.40;;;19.00;64.40;;;;;;5112782;28;20256;-62
2023/05/13 01:32:49;;;;;;;3.33;3.13;;;19.00;64.40;;;;;;5111409;28;20255;-62
2023/05/13 01:35:15;;;;;;;3.35;3.05;;;19.00;64.40;;;;;;5111324;28;20177;-62
2023/05/13 01:37:40;;;;;;;3.45;3.15;;;19.00;64.30;;;;;;5112206;28;20169;-62
2023/05/13 01:40:06;;;;;;;3.35;3.10;;;19.00;64.40;;;;;;5112035;28;20630;-61
2023/05/13 01:42:33;;;;;;;3.50;3.20;;;19.00;64.30;;;;;;5112498;28;20173;-60
2023/05/13 01:44:59;;;;;;;3.47;3.17;;;19.00;64.30;;;;;;5112824;28;20173;-61
2023/05/13 01:47:24;;;;;;;3.60;3.30;;;19.00;64.30;;;;;;5112575;28;20205;-61
2023/05/13 01:49:50;;;;;;;3.42;3.13;;;19.00;64.30;;;;;;5112939;28;20173;-61
2023/05/13 01:52:15;;;;;;;3.97;3.53;;;19.00;64.20;;;;;;5112311;28;20161;-61
2023/05/13 01:54:41;;;;;;;3.85;3.35;;;19.00;64.30;;;;;;5113087;28;20172;-61
2023/05/13 01:57:06;;;;;;;3.78;3.42;;;19.00;64.20;;;;;;5112868;28;20169;-61
2023/05/13 01:59:32;;;;;;;3.75;3.38;;;19.00;64.30;;;;;;5112426;28;20229;-62
2023/05/13 02:01:57;;;;;;;3.22;3.03;;;19.00;64.20;;;;;;5113094;28;20571;-62
2023/05/13 02:04:23;;;;;;;3.83;3.42;;;19.00;64.20;;;;;;5112606;28;20191;-62
2023/05/13 02:06:48;;;;;;;3.78;3.45;;;19.00;64.20;;;;;;5112677;28;20170;-62
2023/05/13 02:09:15;;;;;;;3.80;3.50;;;19.00;64.20;;;;;;5112314;28;20208;-61
2023/05/13 02:11:40;;;;;;;3.83;3.60;;;19.00;64.20;;;;;;5112547;28;20643;-61
2023/05/13 02:14:06;;;;;;;3.55;3.25;;;19.00;64.10;;;;;;5111799;28;20188;-62
2023/05/13 02:16:31;;;;;;;3.50;3.22;;;19.00;64.00;;;;;;5112690;28;20177;-61
2023/05/13 02:18:57;;;;;;;4.05;3.35;;;19.00;64.10;;;;;;5112353;28;20165;-61
2023/05/13 02:21:22;;;;;;;3.53;3.30;;;19.00;64.10;;;;;;5111551;28;20169;-61
2023/05/13 02:23:48;;;;;;;3.33;3.08;;;18.90;64.10;;;;;;5111987;28;20297;-61
2023/05/13 02:26:13;;;;;;;3.42;3.13;;;18.90;64.20;;;;;;5112799;28;20201;-62
2023/05/13 02:28:39;;;;;;;3.55;3.25;;;18.90;64.20;;;;;;5112094;28;20241;-62
2023/05/13 02:31:05;;;;;;;3.33;3.13;;;18.90;64.10;;;;;;5112871;28;20173;-62
2023/05/13 02:33:31;;;;;;;3.47;3.28;;;18.90;64.10;;;;;;5112802;28;20181;-62
2023/05/13 02:35:56;;;;;;;3.70;3.40;;;18.90;64.00;;;;;;5112046;28;20256;-62
2023/05/13 02:38:22;;;;;;;3.50;3.20;;;18.90;64.10;;;;;;5112398;28;20546;-62
2023/05/13 02:40:47;;;;;;;3.50;3.20;;;18.90;64.10;;;;;;5112561;28;20218;-61
2023/05/13 02:43:13;;;;;;;3.80;3.50;;;18.90;64.10;;;;;;5111267;28;20249;-61
2023/05/13 02:45:41;;;;;;;4.03;3.63;;;18.90;64.10;;;;;;5112800;28;20189;-62
2023/05/13 02:48:07;;;;;;;3.75;3.45;;;18.90;64.20;;;;;;5112243;28;20275;-61
2023/05/13 02:50:32;;;;;;;3.83;3.53;;;18.90;64.10;;;;;;5112087;28;20653;-61
2023/05/13 02:52:58;;;;;;;3.92;3.63;;;18.90;64.20;;;;;;5112964;28;20165;-61
2023/05/13 02:55:23;;;;;;;4.72;3.40;;;18.90;64.10;;;;;;5114417;28;20177;-61
2023/05/13 02:57:49;;;;;;;3.80;3.22;;;18.90;64.20;;;;;;5115458;28;20169;-61
2023/05/13 03:00:15;;;;;;;3.38;3.17;;;18.80;64.10;;;;;;5115110;28;20173;-62
2023/05/13 03:02:41;;;;;;;3.75;3.40;;;18.80;64.00;;;;;;5114022;28;20185;-62
2023/05/13 03:05:07;;;;;;;3.22;3.03;;;18.80;64.00;;;;;;5114756;28;20199;-62
2023/05/13 03:07:32;;;;;;;3.25;3.05;;;18.80;64.00;;;;;;5114989;28;20193;-61
2023/05/13 03:09:58;;;;;;;3.80;3.50;;;18.80;64.00;;;;;;5114449;28;20173;-62
2023/05/13 03:12:23;;;;;;;3.58;3.30;;;18.80;64.00;;;;;;5114343;28;20173;-61
2023/05/13 03:14:49;;;;;;;3.15;2.95;;;18.80;64.00;;;;;;5114882;28;20174;-61
2023/05/13 03:17:14;;;;;;;3.42;3.13;;;18.80;64.00;;;;;;5114552;28;20272;-61
2023/05/13 03:19:40;;;;;;;3.50;3.20;;;18.80;64.00;;;;;;5115788;28;20169;-61
2023/05/13 03:22:05;;;;;;;4.13;3.67;;;18.80;64.00;;;;;;5115213;28;20169;-61
2023/05/13 03:24:31;;;;;;;3.72;3.42;;;18.80;64.00;;;;;;5114699;28;20220;-61
2023/05/13 03:26:56;;;;;;;4.32;3.92;;;18.80;63.90;;;;;;5114681;28;20169;-61
2023/05/13 03:29:22;;;;;;;4.03;3.72;;;18.80;64.00;;;;;;5114868;28;20653;-62
2023/05/13 03:31:48;;;;;;;3.67;3.28;;;18.80;64.00;;;;;;5114201;28;20651;-62
2023/05/13 03:34:14;;;;;;;3.55;3.35;;;18.80;63.90;;;;;;5115074;28;20177;-63
2023/05/13 03:36:39;;;;;;;4.22;3.83;;;18.80;63.90;;;;;;5115179;28;20169;-62
2023/05/13 03:39:05;;;;;;;3.60;3.30;;;18.80;63.90;;;;;;5114147;28;20184;-62
2023/05/13 03:41:30;;;;;;;3.63;3.42;;;18.80;63.90;;;;;;5114936;28;20184;-61
2023/05/13 03:43:56;;;;;;;3.95;3.65;;;18.80;63.90;;;;;;5115492;28;20177;-62
2023/05/13 03:46:22;;;;;;;3.70;3.40;;;18.80;63.90;;;;;;5114360;28;20181;-61
2023/05/13 03:48:48;;;;;;;3.53;3.25;;;18.80;63.90;;;;;;5115365;28;20211;-61
2023/05/13 03:51:13;;;;;;;3.97;3.63;;;18.80;63.90;;;;;;5115191;28;20222;-61
2023/05/13 03:53:39;;;;;;;3.72;3.53;;;18.80;63.90;;;;;;5114450;28;20169;-61
2023/05/13 03:56:04;;;;;;;3.63;3.33;;;18.80;63.90;;;;;;5113676;27;20169;-62
2023/05/13 03:58:30;;;;;;;3.28;3.08;;;18.80;63.90;;;;;;5114984;28;20636;-61
2023/05/13 04:00:55;;;;;;;3.78;3.47;;;18.80;63.80;;;;;;5113316;28;20208;-62
2023/05/13 04:03:21;;;;;;;3.40;3.10;;;18.80;63.80;;;;;;5114040;28;20200;-62
2023/05/13 04:05:47;;;;;;;4.28;3.95;;;18.80;63.80;;;;;;5113672;28;20252;-61
2023/05/13 04:08:12;;;;;;;3.80;3.50;;;18.80;63.80;;;;;;5113883;28;20291;-62
2023/05/13 04:10:38;;;;;;;3.75;3.47;;;18.70;63.80;;;;;;5114632;28;20554;-61
2023/05/13 04:13:04;;;;;;;3.60;3.35;;;18.70;63.70;;;;;;5113732;28;20189;-61
2023/05/13 04:15:30;;;;;;;4.13;3.83;;;18.70;63.80;;;;;;5114273;28;20195;-61
2023/05/13 04:17:56;;;;;;;4.10;3.80;;;18.70;63.70;;;;;;5114655;28;20177;-60
2023/05/13 04:20:22;;;;;;;3.83;3.53;;;18.70;63.70;;;;;;5113642;27;20201;-61
2023/05/13 04:22:47;;;;;;;3.40;3.20;;;18.70;63.70;;;;;;5114051;28;20586;-61
2023/05/13 04:25:13;;;;;;;3.95;3.65;;;18.70;63.70;;;;;;5113234;28;20208;-61
2023/05/13 04:27:38;;;;;;;4.00;3.70;;;18.70;63.70;;;;;;5112706;28;20250;-61
2023/05/13 04:30:05;;;;;;;3.95;3.65;;;18.70;63.70;;;;;;5112786;28;20173;-62
2023/05/13 04:32:30;;;;;;;3.50;3.20;;;18.70;63.60;;;;;;5113729;28;20259;-62
2023/05/13 04:34:56;;;;;;;3.80;3.50;;;18.70;63.60;;;;;;5112235;28;20166;-62
2023/05/13 04:37:21;;;;;;;4.20;3.90;;;18.70;63.60;;;;;;5113515;28;20176;-62
2023/05/13 04:39:47;;;;;;;4.22;3.85;;;18.70;63.60;;;;;;5113605;28;20554;-62
2023/05/13 04:42:13;;;;;;;3.45;3.25;;;18.70;63.60;;;;;;5112452;28;20636;-62
2023/05/13 04:44:38;;;;;;;3.92;3.63;;;18.70;63.60;;;;;;5113921;28;20207;-61
2023/05/13 04:47:04;;;;;;;4.32;3.38;;;18.70;63.60;;;;;;5113460;28;20389;-61
2023/05/13 04:49:30;;;;;;;3.80;3.50;;;18.70;63.60;;;;;;5113051;28;20516;-61
2023/05/13 04:51:56;;;;;;;4.25;3.95;;;18.70;63.60;;;;;;5113612;28;20173;-61
2023/05/13 04:54:21;;;;;;;3.88;3.58;;;18.70;63.60;;;;;;5113443;28;20177;-61
2023/05/13 04:56:47;;;;;;;3.50;3.30;;;18.70;63.50;;;;;;5112780;28;20566;-62
2023/05/13 04:59:12;;;;;;;4.28;3.97;;;18.70;63.50;;;;;;5113250;28;20181;-61
2023/05/13 05:01:38;;;;;;;4.13;3.83;;;18.70;63.50;;;;;;5113464;28;20199;-62
2023/05/13 05:04:04;;;;;;;4.35;4.05;;;18.70;63.50;;;;;;5112545;28;20263;-62
2023/05/13 05:06:31;;;;;;;3.78;3.47;;;18.70;63.50;;;;;;5113421;28;20696;-62
2023/05/13 05:08:57;;;;;;;3.88;3.58;;;18.70;63.50;;;;;;5112348;28;20240;-62
2023/05/13 05:11:22;;;;;;;3.88;3.47;;;18.70;63.50;;;;;;5112990;28;20206;-61
2023/05/13 05:13:48;;;;;;;4.18;3.88;;;18.70;63.50;;;;;;5113308;28;20185;-61
2023/05/13 05:16:13;;;;;;;3.90;3.53;;;18.70;63.50;;;;;;5111575;28;20165;-61
2023/05/13 05:18:42;;;;;;;4.50;3.90;;;18.70;63.50;;;;;;5113001;28;20177;-61
2023/05/13 05:21:08;;;;;;;3.90;3.60;;;18.70;63.40;;;;;;5112748;28;20252;-61
2023/05/13 05:23:34;;;;;;;4.10;3.80;;;18.70;63.40;;;;;;5112210;28;20307;-60
2023/05/13 05:26:00;;;;;;;4.00;3.70;;;18.70;63.30;;;;;;5113111;28;20659;-61
2023/05/13 05:28:25;;;;;;;4.10;3.80;;;18.80;63.40;;;;;;5112821;28;20209;-61
2023/05/13 05:30:51;;;;;;;4.07;3.78;;;18.70;63.40;;;;;;5112394;28;20246;-62
2023/05/13 05:33:17;;;;;;;3.58;3.38;;;18.70;63.40;;;;;;5112819;28;20188;-63
2023/05/13 05:35:42;;;;;;;4.10;3.70;;;18.70;63.40;;;;;;5111937;28;20664;-62
2023/05/13 05:38:09;;;;;;;4.10;3.83;;;18.70;63.40;;;;;;5111758;28;20173;-62
2023/05/13 05:40:37;;;;;;;3.55;3.35;;;18.70;63.40;;;;;;5113039;28;20173;-62
2023/05/13 05:43:03;;;;;;;4.05;3.75;;;18.80;63.30;;;;;;5111904;28;20177;-61
2023/05/13 05:45:28;;;;;;;4.10;3.80;;;18.80;63.20;;;;;;5112057;28;20165;-61
2023/05/13 05:47:54;;;;;;;4.43;4.13;;;18.80;63.20;;;;;;5112822;28;20657;-62
2023/05/13 05:50:20;;;;;;;3.83;3.53;;;18.80;63.20;;;;;;5112518;28;20610;-61
2023/05/13 05:52:45;;;;;;;4.43;4.07;;;18.80;63.30;;;;;;5112162;28;20184;-62
2023/05/13 05:55:11;;;;;;;4.22;3.92;;;18.80;63.30;;;;;;5112430;28;20173;-61
2023/05/13 05:57:36;;;;;;;4.28;3.97;;;18.80;63.30;;;;;;5112917;28;20181;-62
2023/05/13 06:00:02;;;;;;;4.10;3.80;;;18.80;63.30;;;;;;5112055;28;20173;-63
2023/05/13 06:02:27;;;;;;;3.90;3.70;;;18.80;63.20;;;;;;5112329;28;20180;-63
2023/05/13 06:04:53;;;;;;;4.10;3.80;;;18.80;63.20;;;;;;5112660;28;20172;-62
2023/05/13 06:07:18;;;;;;;4.38;4.07;;;18.80;63.20;;;;;;5111253;28;20180;-61
2023/05/13 06:09:44;;;;;;;4.00;3.70;;;18.80;63.30;;;;;;5112504;28;20561;-61
2023/05/13 06:12:09;;;;;;;4.97;4.57;;;18.80;63.30;;;;;;5112542;28;20659;-62
2023/05/13 06:14:35;;;;;;;3.97;3.67;;;18.80;63.20;;;;;;5112041;28;20172;-62
2023/05/13 06:17:01;;;;;;;4.32;4.03;;;18.80;63.10;;;;;;5112491;28;20173;-61
2023/05/13 06:19:26;;;;;;;3.75;3.45;;;18.90;63.10;;;;;;5111273;28;20248;-61
2023/05/13 06:21:52;;;;;;;4.15;3.85;;;18.90;63.10;;;;;;5112136;28;20169;-61
2023/05/13 06:24:17;;;;;;;3.90;3.60;;;18.90;63.10;;;;;;5111919;28;20221;-61
2023/05/13 06:26:43;;;;;;;4.35;3.95;;;18.90;63.10;;;;;;5111944;28;20169;-61
2023/05/13 06:29:12;;;;;;;4.30;4.00;;;18.90;63.10;;;;;;5116186;28;20649;-62
2023/05/13 06:31:37;;;;;;;4.38;3.97;;;19.00;63.10;;;;;;5116401;28;20166;-65
2023/05/13 06:34:03;;;;;;;4.32;3.92;;;18.90;63.00;;;;;;5115450;28;20890;-62
2023/05/13 06:36:28;;;;;;;4.30;4.00;;;19.00;63.10;;;;;;5115537;28;20652;-62
2023/05/13 06:38:54;;;;;;;4.07;3.78;;;19.00;63.10;;;;;;5115799;28;20530;-62
2023/05/13 06:41:20;;;;;;;3.90;3.60;;;18.90;63.00;;;;;;5114942;28;20170;-62
2023/05/13 06:43:47;;;;;;;3.78;3.50;;;19.00;63.00;;;;;;5116117;28;20177;-62
2023/05/13 06:46:13;;;;;;;3.90;3.60;;;19.00;62.90;;;;;;5115957;28;20166;-61
2023/05/13 06:48:38;;;;;;;4.05;3.83;;;19.00;62.90;;;;;;5115480;28;20231;-61
2023/05/13 06:51:04;;;;;;;3.88;3.58;;;19.00;62.90;;;;;;5115534;28;20370;-61
2023/05/13 06:53:30;;;;;;;4.93;3.72;;;18.90;62.80;;;;;;5115982;28;20244;-61
2023/05/13 06:55:56;;;;;;;4.20;3.78;;;19.10;62.80;;;;;;5115265;28;20196;-61
2023/05/13 06:58:22;;;;;;;3.75;3.45;;;19.00;62.70;;;;;;5115515;28;20536;-62
2023/05/13 07:00:47;;;;;;;4.03;3.78;;;19.10;62.70;;;;;;5115828;28;20269;-62
2023/05/13 07:03:13;;;;;;;4.57;4.28;;;19.10;62.70;;;;;;5114541;28;20177;-61
2023/05/13 07:05:38;;;;;;;4.03;3.72;;;19.10;62.70;;;;;;5115453;28;20248;-62
2023/05/13 07:08:05;;;;;;;4.20;3.90;;;19.10;62.60;;;;;;5115260;28;20217;-62
2023/05/13 07:10:32;;;;;;;4.20;3.90;;;19.20;62.60;;;;;;5114986;28;20201;-62
2023/05/13 07:12:58;;;;;;;4.30;4.00;;;19.10;62.50;;;;;;5115609;28;20180;-61
2023/05/13 07:15:24;;;;;;;4.43;4.13;;;19.10;62.50;;;;;;5113909;28;20181;-62
2023/05/13 07:17:49;;;;;;;3.80;3.50;;;19.20;62.40;;;;;;5114844;28;20200;-62
2023/05/13 07:20:15;;;;;;;3.90;3.60;;;19.20;62.50;;;;;;5115220;28;20707;-61
2023/05/13 07:22:40;;;;;;;4.20;3.90;;;19.20;62.50;;;;;;5114802;28;20312;-61
2023/05/13 07:25:06;;;;;;;4.00;3.72;;;19.20;62.50;;;;;;5115364;28;20169;-61
2023/05/13 07:27:32;;;;;;;4.15;3.85;;;19.20;62.40;;;;;;5115539;28;20177;-61
2023/05/13 07:29:57;;;;;;;4.13;3.83;;;19.20;62.40;;;;;;5114903;28;20172;-62
2023/05/13 07:32:23;;;;;;;4.20;3.90;;;19.30;62.40;;;;;;5114931;28;20545;-63
2023/05/13 07:34:48;;;;;;;4.38;4.05;;;19.20;62.30;;;;;;5114879;28;20173;-61
2023/05/13 07:37:14;;;;;;;4.13;3.83;;;19.30;62.40;;;;;;5113553;28;20173;-62
2023/05/13 07:39:39;;;;;;;3.90;3.63;;;19.30;62.40;;;;;;5114224;28;20177;-61
2023/05/13 07:42:05;;;;;;;3.70;3.50;;;19.30;62.20;;;;;;5114682;28;20173;-61
2023/05/13 07:44:30;;;;;;;4.00;3.70;;;19.30;62.20;;;;;;5114336;28;20173;-61
2023/05/13 07:46:56;;;;;;;3.95;3.60;;;19.30;62.20;;;;;;5114717;28;20632;-61
2023/05/13 07:49:21;;;;;;;4.13;3.83;;;19.40;62.20;;;;;;5114466;28;20229;-61
2023/05/13 07:51:47;;;;;;;4.60;4.22;;;19.40;62.10;;;;;;5114441;28;20670;-61
2023/05/13 07:54:12;;;;;;;3.88;3.58;;;19.40;62.10;;;;;;5114708;28;20646;-61
2023/05/13 07:56:38;;;;;;;4.22;3.92;;;19.40;62.10;;;;;;5114637;28;20700;-61
2023/05/13 07:59:04;;;;;;;4.10;3.70;;;19.40;62.10;;;;;;5114130;28;20276;-62
2023/05/13 08:01:29;;;;;;;4.13;3.83;;;19.40;62.20;;;;;;5114137;28;20260;-62
2023/05/13 08:03:55;;;;;;;4.05;3.75;;;19.40;62.20;;;;;;5096333;28;20177;-62
2023/05/13 08:06:20;;;;;;;4.22;3.92;;;19.50;62.10;;;;;;5113146;28;20214;-62
2023/05/13 08:08:46;;;;;;;3.80;3.50;;;19.50;62.10;;;;;;5114278;28;20243;-62
2023/05/13 08:11:12;;;;;;;4.25;3.92;;;19.50;62.90;;;;;;5114104;28;20231;-62
2023/05/13 08:13:38;;;;;;;3.80;3.50;;;19.50;62.00;;;;;;5113375;28;20200;-62
2023/05/13 08:16:05;;;;;;;3.92;3.63;;;19.50;62.00;;;;;;5114074;28;20201;-62
2023/05/13 08:18:31;;;;;;;3.88;3.58;;;19.50;62.00;;;;;;5113913;28;20181;-61
2023/05/13 08:20:57;;;;;;;4.10;3.80;;;19.50;62.00;;;;;;5113394;28;20256;-61
2023/05/13 08:23:24;;;;;;;3.72;3.45;;;19.60;62.10;;;;;;5113805;28;20653;-61
2023/05/13 08:25:50;;;;;;;3.55;3.25;;;19.60;62.20;;;;;;5114195;28;20169;-61
2023/05/13 08:28:15;;;;;;;3.40;3.20;;;19.60;62.10;;;;;;5113586;28;20678;-61
2023/05/13 08:30:43;;;;;;;3.85;3.55;;;19.60;62.10;;;;;;5114370;28;20200;-62
2023/05/13 08:33:09;;;;;;;3.88;3.58;;;19.60;62.10;;;;;;5112990;28;20193;-62
2023/05/13 08:35:35;;;;;;;3.42;3.22;;;19.60;62.10;;;;;;5114450;28;20206;-62
2023/05/13 08:38:02;;;;;;;3.55;3.28;;;19.70;62.20;;;;;;5114259;28;20192;-64
2023/05/13 08:40:28;;;;;;;4.25;3.85;;;19.70;62.20;;;;;;5113343;27;20230;-62
2023/05/13 08:42:53;;;;;;;4.25;3.95;;;19.70;62.20;;;;;;5114188;28;20540;-61
2023/05/13 08:45:20;;;;;;;4.15;3.85;;;19.70;62.10;;;;;;5112604;28;20584;-61
2023/05/13 08:48:01;;;;;;;4.25;3.65;;;19.70;62.20;;;;;;5110864;28;20197;-61
2023/05/13 08:50:27;;;;;;;3.83;3.53;;;19.70;62.20;;;;;;5113237;28;20184;-61
2023/05/13 08:52:53;;;;;;;3.72;3.53;;;19.70;62.20;;;;;;5113680;28;20655;-61
2023/05/13 08:55:19;;;;;;;3.67;3.45;;;19.70;62.10;;;;;;5112693;28;20177;-61
2023/05/13 08:57:44;;;;;;;3.88;3.58;;;19.80;62.30;;;;;;5113923;28;20461;-62
2023/05/13 09:00:10;;;;;;;3.55;3.30;;;19.80;62.20;;;;;;5113111;28;20199;-62
2023/05/13 09:02:36;;;;;;;3.80;3.60;;;19.80;62.20;;;;;;5112932;28;20510;-62
2023/05/13 09:05:05;;;;;;;3.80;3.50;;;19.80;62.20;;;;;;5113575;28;20173;-62
2023/05/13 09:07:31;;;;;;;4.78;3.33;;;19.90;62.20;;;;;;5113744;28;20169;-62
2023/05/13 09:09:57;;;;;;;3.35;3.15;;;19.90;62.20;;;;;;5112992;28;20592;-61
2023/05/13 09:12:53;;;;;;;3.75;3.45;;;19.90;62.20;;;;;;5113422;28;20173;-62
2023/05/13 09:15:19;;;;;;;3.88;3.58;;;19.90;62.20;;;;;;5098644;28;20181;-61
2023/05/13 09:17:47;;;;;;;3.83;3.55;;;19.90;62.20;;;;;;5113525;28;20556;-61
2023/05/13 09:20:14;;;;;;;3.78;3.47;;;19.90;62.10;;;;;;5113249;28;20266;-61
2023/05/13 09:22:47;;;;;;;4.03;3.72;;;19.90;62.10;;;;;;5112603;28;20225;-61
2023/05/13 09:25:14;;;;;;;3.88;3.58;;;19.90;62.10;;;;;;5113044;28;20176;-61
2023/05/13 09:27:42;;;;;;;3.42;3.22;;;20.00;62.20;;;;;;5113487;28;20218;-61
2023/05/13 09:30:09;;;;;;;3.20;3.00;;;20.00;62.20;;;;;;5112516;28;20537;-61
2023/05/13 09:32:34;;;;;;;3.35;3.15;;;20.00;62.20;;;;;;5113557;28;20180;-62
2023/05/13 09:35:10;;;;;;;3.47;3.20;;;20.00;62.10;;;;;;5113512;28;20176;-62
2023/05/13 09:37:35;;;;;;;3.30;3.10;;;20.00;62.10;;;;;;5112463;28;20251;-62
2023/05/13 09:40:01;;;;;;;3.50;3.30;;;20.10;62.10;;;;;;5113341;28;20205;-62
2023/05/13 09:42:27;;;;;;;3.58;3.33;;;20.10;62.10;;;;;;5112770;28;20238;-62
2023/05/13 09:44:52;;;;;;;4.07;3.78;;;20.10;62.10;;;;;;5111552;28;20176;-61
2023/05/13 09:47:18;;;;;;;3.85;3.60;;;20.10;62.20;;;;;;5112741;28;20688;-61
2023/05/13 09:49:44;;;;;;;3.60;3.30;;;20.10;62.10;;;;;;5113049;28;20203;-60
2023/05/13 09:52:10;;;;;;;3.65;3.35;;;20.10;62.40;;;;;;5112067;28;20181;-60
2023/05/13 09:54:39;;;;;;;3.25;3.00;;;20.10;62.40;;;;;;5113080;28;20199;-61
2023/05/13 09:57:05;;;;;;;3.85;3.17;;;20.20;62.90;;;;;;5112970;28;20234;-61
2023/05/13 09:59:32;;;;;;;3.90;3.50;;;20.20;62.90;;;;;;5112598;28;20165;-62
2023/05/13 10:01:58;;;;;;;6.38;5.78;;;20.20;63.10;;;;;;5113610;28;20260;-61
2023/05/13 10:04:24;;;;;;;18.63;16.90;;;20.20;63.20;;;;;;5116352;28;20195;-60
2023/05/13 10:06:50;;;;;;;34.22;30.77;;;20.30;62.90;;;;;;5117124;28;20169;-59
2023/05/13 10:09:15;;;;;;;116.45;102.00;;;20.40;62.80;;;;;;5116739;28;20216;-59
2023/05/13 10:11:43;;;;;;;116.97;99.32;;;20.40;63.40;;;;;;5116338;28;20165;-59
2023/05/13 10:14:08;;;;;;;111.40;95.88;;;20.50;62.10;;;;;;5098806;28;20601;-59
2023/05/13 10:16:34;;;;;;;94.68;82.15;;;20.60;60.60;;;;;;5115649;28;20636;-60
2023/05/13 10:18:59;;;;;;;79.78;69.38;;;20.70;59.50;;;;;;5098087;28;20208;-60
2023/05/13 10:21:28;;;;;;;58.70;48.67;;;20.70;59.10;;;;;;5116646;28;20256;-59
2023/05/13 10:23:54;;;;;;;48.60;40.38;;;20.80;57.90;;;;;;5114703;28;20221;-59
2023/05/13 10:26:21;;;;;;;44.00;36.72;;;20.90;56.60;;;;;;5114856;28;20173;-60
2023/05/13 10:28:47;;;;;;;40.95;35.75;;;20.90;56.30;;;;;;5116599;28;20675;-60
2023/05/13 10:31:12;;;;;;;36.03;32.13;;;21.00;56.50;;;;;;5116300;27;20173;-60
2023/05/13 10:33:39;;;;;;;28.00;24.80;;;21.00;56.70;;;;;;5115999;28;20260;-60
2023/05/13 10:36:26;;;;;;;31.98;28.45;;;21.00;56.00;;;;;;5116188;28;20176;-61
2023/05/13 10:39:00;;;;;;;26.98;23.65;;;21.00;56.50;;;;;;5116487;28;20246;-60
2023/05/13 10:42:03;;;;;;;29.27;26.15;;;21.00;55.90;;;;;;5115662;28;20169;-59
2023/05/13 10:44:28;;;;;;;27.63;24.27;;;21.00;56.90;;;;;;5116273;28;20545;-59
2023/05/13 10:46:57;;;;;;;30.23;25.27;;;20.90;56.80;;;;;;5113918;28;20169;-59
2023/05/13 10:49:25;;;;;;;24.92;21.95;;;21.00;57.10;;;;;;5114527;28;20816;-60
2023/05/13 10:51:51;;;;;;;27.67;23.92;;;20.90;56.80;;;;;;5115832;28;20271;-60
2023/05/13 10:54:20;;;;;;;29.85;24.45;;;20.90;57.00;;;;;;5115146;28;20687;-59
2023/05/13 10:56:56;;;;;;;27.75;24.92;;;20.90;57.60;;;;;;5116274;28;20584;-60
2023/05/13 10:59:21;;;;;;;29.50;25.42;;;20.80;58.00;;;;;;5114956;28;20183;-60
2023/05/13 11:01:47;;;;;;;29.58;26.33;;;20.80;58.30;;;;;;5115261;28;20259;-60
2023/05/13 11:04:16;;;;;;;29.38;26.25;;;20.80;58.50;;;;;;5114565;28;20261;-60
2023/05/13 11:06:45;;;;;;;30.38;26.98;;;20.80;58.80;;;;;;5114970;27;20177;-60
2023/05/13 11:09:19;;;;;;;31.33;26.55;;;20.80;59.00;;;;;;5113630;28;20211;-60
2023/05/13 11:11:47;;;;;;;29.77;26.40;;;20.80;59.20;;;;;;5114156;28;20696;-60
2023/05/13 11:14:19;;;;;;;29.45;26.42;;;20.80;59.50;;;;;;5113262;28;21013;-59
2023/05/13 11:16:46;;;;;;;30.35;27.10;;;20.80;59.60;;;;;;5113920;28;20549;-59
2023/05/13 11:19:20;;;;;;;32.22;26.48;;;20.70;60.00;;;;;;5115692;28;20207;-60
2023/05/13 11:21:48;;;;;;;30.80;27.52;;;20.70;60.10;;;;;;5115274;28;20185;-59
2023/05/13 11:24:16;;;;;;;32.50;29.08;;;20.70;60.20;;;;;;5115217;28;20228;-59
2023/05/13 11:26:49;;;;;;;32.67;28.15;;;20.70;60.30;;;;;;5115812;28;20260;-60
2023/05/13 11:29:25;;;;;;;32.10;28.80;;;20.80;60.50;;;;;;5114588;28;20304;-60
2023/05/13 11:31:51;;;;;;;31.20;28.00;;;20.80;60.50;;;;;;5115801;28;20165;-60
2023/05/13 11:34:18;;;;;;;31.80;28.27;;;20.70;60.90;;;;;;5115346;28;20185;-61
2023/05/13 11:36:51;;;;;;;30.42;27.23;;;20.70;61.30;;;;;;5114923;28;20176;-60
2023/05/13 11:39:21;;;;;;;32.33;29.08;;;20.70;61.20;;;;;;5115165;28;20173;-60
2023/05/13 11:41:48;;;;;;;32.95;29.42;;;20.80;61.10;;;;;;5115620;28;20256;-60
2023/05/13 11:44:16;;;;;;;31.98;28.67;;;20.80;61.10;;;;;;5114377;28;20650;-60
2023/05/13 11:46:58;;;;;;;30.35;26.67;;;20.80;61.10;;;;;;5115340;28;20188;-60
2023/05/13 11:49:39;;;;;;;30.33;26.70;;;20.80;61.10;;;;;;5114825;28;20682;-60
2023/05/13 11:52:09;;;;;;;29.85;26.98;;;20.90;61.10;;;;;;5114292;28;20222;-60
2023/05/13 11:54:48;;;;;;;29.15;26.15;;;20.80;61.00;;;;;;5115268;28;20207;-60
2023/05/13 11:57:24;;;;;;;30.02;26.83;;;20.90;61.10;;;;;;5113989;28;20177;-60
2023/05/13 12:00:05;;;;;;;29.33;26.42;;;21.00;61.10;;;;;;5115357;28;20234;-60
2023/05/13 12:02:34;;;;;;;30.30;27.02;;;20.90;61.10;;;;;;5114858;28;20706;-61
2023/05/13 12:05:03;;;;;;;28.17;25.17;;;20.80;61.30;;;;;;5114328;28;20173;-60
2023/05/13 12:07:29;;;;;;;27.92;25.10;;;20.80;61.70;;;;;;5114720;28;20294;-60
2023/05/13 12:09:56;;;;;;;27.80;25.00;;;20.80;61.70;;;;;;5114931;28;20783;-60
2023/05/13 12:12:22;;;;;;;27.90;24.33;;;20.80;61.60;;;;;;5114076;28;20527;-60
2023/05/13 12:14:51;;;;;;;28.70;25.77;;;20.90;61.40;;;;;;5113591;28;20230;-60
2023/05/13 12:17:17;;;;;;;26.98;24.25;;;20.90;61.40;;;;;;5114669;27;20177;-59
2023/05/13 12:20:05;;;;;;;26.00;23.40;;;21.00;61.40;;;;;;5114100;28;20177;-60
2023/05/13 12:22:34;;;;;;;26.52;23.83;;;21.00;61.40;;;;;;5114646;28;20279;-60
2023/05/13 12:25:20;;;;;;;24.88;22.38;;;21.00;61.40;;;;;;5113894;28;20177;-60
2023/05/13 12:27:53;;;;;;;25.27;22.77;;;21.00;61.30;;;;;;5114564;28;20258;-60
2023/05/13 12:30:18;;;;;;;25.58;22.88;;;21.10;61.20;;;;;;5114351;28;20692;-61
2023/05/13 12:32:44;;;;;;;23.80;21.50;;;21.00;61.30;;;;;;5113752;28;20170;-61
2023/05/13 12:35:14;;;;;;;24.77;22.27;;;21.00;61.40;;;;;;5114053;28;20204;-61
2023/05/13 12:37:40;;;;;;;24.42;22.10;;;21.00;61.50;;;;;;5114310;28;20173;-60
2023/05/13 12:40:09;;;;;;;23.95;21.65;;;21.10;61.20;;;;;;5113338;28;20176;-60
2023/05/13 12:42:35;;;;;;;23.85;21.45;;;21.10;61.00;;;;;;5114062;28;20671;-61